sensor_id;sensor_type;location;lat;lon;timestamp;pressure;altitude;pressure_sealevel;temperature
74539;BMP180;66042;51.090;-115.340;2023-11-21T00:00:10;87736.20;;;3.00
74539;BMP180;66042;51.090;-115.340;2023-11-21T00:02:39;87742.80;;;3.00
74539;BMP180;66042;51.090;-115.340;2023-11-21T00:05:11;87741.80;;;2.90
74539;BMP180;66042;51.090;-115.340;2023-11-21T00:07:41;87734.40;;;2.82
74539;BMP180;66042;51.090;-115.340;2023-11-21T00:10:09;87736.60;;;2.80
74539;BMP180;66042;51.090;-115.340;2023-11-21T00:12:37;87726.80;;;2.80
74539;BMP180;66042;51.090;-115.340;2023-11-21T00:15:05;87719.60;;;2.80
74539;BMP180;66042;51.090;-115.340;2023-11-21T00:17:35;87723.40;;;2.80
74539;BMP180;66042;51.090;-115.340;2023-11-21T00:20:02;87725.00;;;2.70
74539;BMP180;66042;51.090;-115.340;2023-11-21T00:22:36;87723.60;;;2.76
74539;BMP180;66042;51.090;-115.340;2023-11-21T00:25:03;87725.80;;;2.74
74539;BMP180;66042;51.090;-115.340;2023-11-21T00:27:31;87727.00;;;2.70
74539;BMP180;66042;51.090;-115.340;2023-11-21T00:29:58;87725.00;;;2.70
74539;BMP180;66042;51.090;-115.340;2023-11-21T00:32:24;87725.60;;;2.70
74539;BMP180;66042;51.090;-115.340;2023-11-21T00:34:51;87725.40;;;2.70
74539;BMP180;66042;51.090;-115.340;2023-11-21T00:37:18;87723.80;;;2.60
74539;BMP180;66042;51.090;-115.340;2023-11-21T00:39:45;87723.60;;;2.60
74539;BMP180;66042;51.090;-115.340;2023-11-21T00:42:12;87710.80;;;2.60
74539;BMP180;66042;51.090;-115.340;2023-11-21T00:44:39;87712.00;;;2.60
74539;BMP180;66042;51.090;-115.340;2023-11-21T00:47:06;87704.20;;;2.60
74539;BMP180;66042;51.090;-115.340;2023-11-21T00:49:34;87698.20;;;2.60
74539;BMP180;66042;51.090;-115.340;2023-11-21T00:52:01;87708.00;;;2.60
74539;BMP180;66042;51.090;-115.340;2023-11-21T00:54:29;87706.20;;;2.60
74539;BMP180;66042;51.090;-115.340;2023-11-21T00:56:56;87712.00;;;2.50
74539;BMP180;66042;51.090;-115.340;2023-11-21T00:59:24;87717.20;;;2.40
74539;BMP180;66042;51.090;-115.340;2023-11-21T01:01:51;87725.40;;;2.40
74539;BMP180;66042;51.090;-115.340;2023-11-21T01:04:18;87732.20;;;2.40
74539;BMP180;66042;51.090;-115.340;2023-11-21T01:06:45;87728.20;;;2.40
74539;BMP180;66042;51.090;-115.340;2023-11-21T01:09:12;87726.80;;;2.38
74539;BMP180;66042;51.090;-115.340;2023-11-21T01:11:39;87724.00;;;2.40
74539;BMP180;66042;51.090;-115.340;2023-11-21T01:14:06;87726.80;;;2.40
74539;BMP180;66042;51.090;-115.340;2023-11-21T01:16:36;87728.00;;;2.40
74539;BMP180;66042;51.090;-115.340;2023-11-21T01:19:03;87734.80;;;2.40
74539;BMP180;66042;51.090;-115.340;2023-11-21T01:21:31;87744.80;;;2.40
74539;BMP180;66042;51.090;-115.340;2023-11-21T01:23:58;87742.00;;;2.40
74539;BMP180;66042;51.090;-115.340;2023-11-21T01:26:25;87762.00;;;2.40
74539;BMP180;66042;51.090;-115.340;2023-11-21T01:28:52;87764.40;;;2.38
74539;BMP180;66042;51.090;-115.340;2023-11-21T01:31:18;87757.60;;;2.30
74539;BMP180;66042;51.090;-115.340;2023-11-21T01:33:46;87765.80;;;2.30
74539;BMP180;66042;51.090;-115.340;2023-11-21T01:36:15;87768.60;;;2.30
74539;BMP180;66042;51.090;-115.340;2023-11-21T01:38:41;87772.00;;;2.30
74539;BMP180;66042;51.090;-115.340;2023-11-21T01:41:09;87779.60;;;2.30
74539;BMP180;66042;51.090;-115.340;2023-11-21T01:43:38;87782.20;;;2.10
74539;BMP180;66042;51.090;-115.340;2023-11-21T01:46:06;87784.80;;;2.10
74539;BMP180;66042;51.090;-115.340;2023-11-21T01:48:35;87789.80;;;2.10
74539;BMP180;66042;51.090;-115.340;2023-11-21T01:51:02;87790.80;;;2.14
74539;BMP180;66042;51.090;-115.340;2023-11-21T01:53:29;87786.80;;;2.20
74539;BMP180;66042;51.090;-115.340;2023-11-21T01:55:57;87781.80;;;2.20
74539;BMP180;66042;51.090;-115.340;2023-11-21T01:58:24;87782.40;;;2.20
74539;BMP180;66042;51.090;-115.340;2023-11-21T02:00:51;87779.00;;;2.20
74539;BMP180;66042;51.090;-115.340;2023-11-21T02:03:21;87773.80;;;2.20
74539;BMP180;66042;51.090;-115.340;2023-11-21T02:05:48;87764.40;;;2.20
74539;BMP180;66042;51.090;-115.340;2023-11-21T02:08:15;87764.60;;;2.20
74539;BMP180;66042;51.090;-115.340;2023-11-21T02:10:42;87760.60;;;2.10
74539;BMP180;66042;51.090;-115.340;2023-11-21T02:13:09;87763.60;;;2.00
74539;BMP180;66042;51.090;-115.340;2023-11-21T02:15:37;87757.40;;;1.90
74539;BMP180;66042;51.090;-115.340;2023-11-21T02:18:05;87752.40;;;1.80
74539;BMP180;66042;51.090;-115.340;2023-11-21T02:20:33;87752.60;;;1.80
74539;BMP180;66042;51.090;-115.340;2023-11-21T02:23:01;87751.80;;;1.74
74539;BMP180;66042;51.090;-115.340;2023-11-21T02:25:31;87754.20;;;1.80
74539;BMP180;66042;51.090;-115.340;2023-11-21T02:28:04;87757.00;;;1.80
74539;BMP180;66042;51.090;-115.340;2023-11-21T02:30:33;87759.00;;;1.80
74539;BMP180;66042;51.090;-115.340;2023-11-21T02:33:01;87764.80;;;1.82
74539;BMP180;66042;51.090;-115.340;2023-11-21T02:35:28;87767.00;;;1.90
74539;BMP180;66042;51.090;-115.340;2023-11-21T02:37:57;87781.80;;;1.88
74539;BMP180;66042;51.090;-115.340;2023-11-21T02:40:24;87790.60;;;1.90
74539;BMP180;66042;51.090;-115.340;2023-11-21T02:42:53;87794.20;;;1.88
74539;BMP180;66042;51.090;-115.340;2023-11-21T02:45:21;87784.40;;;1.90
74539;BMP180;66042;51.090;-115.340;2023-11-21T02:47:48;87784.00;;;1.90
74539;BMP180;66042;51.090;-115.340;2023-11-21T02:50:15;87790.40;;;1.90
74539;BMP180;66042;51.090;-115.340;2023-11-21T02:52:45;87788.60;;;1.88
74539;BMP180;66042;51.090;-115.340;2023-11-21T02:55:12;87788.80;;;1.90
74539;BMP180;66042;51.090;-115.340;2023-11-21T02:57:39;87787.80;;;1.90
74539;BMP180;66042;51.090;-115.340;2023-11-21T03:00:07;87782.60;;;1.90
74539;BMP180;66042;51.090;-115.340;2023-11-21T03:02:36;87784.40;;;1.90
74539;BMP180;66042;51.090;-115.340;2023-11-21T03:05:07;87793.20;;;1.90
74539;BMP180;66042;51.090;-115.340;2023-11-21T03:07:40;87790.60;;;1.90
74539;BMP180;66042;51.090;-115.340;2023-11-21T03:10:09;87790.00;;;1.90
74539;BMP180;66042;51.090;-115.340;2023-11-21T03:12:39;87795.60;;;1.90
74539;BMP180;66042;51.090;-115.340;2023-11-21T03:15:07;87792.20;;;2.00
74539;BMP180;66042;51.090;-115.340;2023-11-21T03:17:37;87790.00;;;2.00
74539;BMP180;66042;51.090;-115.340;2023-11-21T03:20:05;87794.00;;;1.92
74539;BMP180;66042;51.090;-115.340;2023-11-21T03:22:33;87793.00;;;1.96
74539;BMP180;66042;51.090;-115.340;2023-11-21T03:25:03;87787.40;;;2.00
74539;BMP180;66042;51.090;-115.340;2023-11-21T03:27:31;87791.80;;;2.00
74539;BMP180;66042;51.090;-115.340;2023-11-21T03:29:58;87787.40;;;2.00
74539;BMP180;66042;51.090;-115.340;2023-11-21T03:32:25;87791.00;;;2.00
74539;BMP180;66042;51.090;-115.340;2023-11-21T03:34:59;87791.60;;;2.00
74539;BMP180;66042;51.090;-115.340;2023-11-21T03:37:26;87802.80;;;2.00
74539;BMP180;66042;51.090;-115.340;2023-11-21T03:39:57;87805.20;;;2.00
74539;BMP180;66042;51.090;-115.340;2023-11-21T03:42:32;87803.20;;;2.00
74539;BMP180;66042;51.090;-115.340;2023-11-21T03:47:53;87794.60;;;2.00
74539;BMP180;66042;51.090;-115.340;2023-11-21T03:50:23;87797.40;;;2.00
74539;BMP180;66042;51.090;-115.340;2023-11-21T03:53:14;87807.80;;;2.00
74539;BMP180;66042;51.090;-115.340;2023-11-21T03:55:52;87798.60;;;2.00
74539;BMP180;66042;51.090;-115.340;2023-11-21T03:58:41;87801.40;;;2.00
74539;BMP180;66042;51.090;-115.340;2023-11-21T04:01:32;87803.40;;;2.00
74539;BMP180;66042;51.090;-115.340;2023-11-21T04:04:03;87803.60;;;2.00
74539;BMP180;66042;51.090;-115.340;2023-11-21T04:06:33;87805.80;;;2.00
74539;BMP180;66042;51.090;-115.340;2023-11-21T04:18:55;87806.20;;;1.90
74539;BMP180;66042;51.090;-115.340;2023-11-21T04:21:30;87803.80;;;1.90
74539;BMP180;66042;51.090;-115.340;2023-11-21T04:27:50;87788.20;;;1.90
74539;BMP180;66042;51.090;-115.340;2023-11-21T04:30:44;87777.40;;;1.92
74539;BMP180;66042;51.090;-115.340;2023-11-21T04:33:54;87784.80;;;2.00
74539;BMP180;66042;51.090;-115.340;2023-11-21T04:36:37;87778.00;;;2.00
74539;BMP180;66042;51.090;-115.340;2023-11-21T04:39:27;87765.80;;;1.96
74539;BMP180;66042;51.090;-115.340;2023-11-21T04:42:10;87762.00;;;1.94
74539;BMP180;66042;51.090;-115.340;2023-11-21T04:44:39;87769.00;;;2.00
74539;BMP180;66042;51.090;-115.340;2023-11-21T04:47:07;87765.60;;;2.00
74539;BMP180;66042;51.090;-115.340;2023-11-21T04:49:43;87772.20;;;2.00
74539;BMP180;66042;51.090;-115.340;2023-11-21T04:52:28;87766.80;;;2.00
74539;BMP180;66042;51.090;-115.340;2023-11-21T04:55:06;87764.40;;;2.00
74539;BMP180;66042;51.090;-115.340;2023-11-21T04:57:40;87766.80;;;1.90
74539;BMP180;66042;51.090;-115.340;2023-11-21T05:00:13;87759.00;;;1.90
74539;BMP180;66042;51.090;-115.340;2023-11-21T05:03:00;87761.40;;;1.80
74539;BMP180;66042;51.090;-115.340;2023-11-21T05:05:31;87754.80;;;1.80
74539;BMP180;66042;51.090;-115.340;2023-11-21T05:08:05;87755.40;;;1.80
74539;BMP180;66042;51.090;-115.340;2023-11-21T05:10:41;87757.80;;;1.80
74539;BMP180;66042;51.090;-115.340;2023-11-21T05:13:19;87756.60;;;1.80
74539;BMP180;66042;51.090;-115.340;2023-11-21T05:16:10;87766.40;;;1.80
74539;BMP180;66042;51.090;-115.340;2023-11-21T05:19:24;87757.20;;;1.72
74539;BMP180;66042;51.090;-115.340;2023-11-21T05:22:05;87750.80;;;1.70
74539;BMP180;66042;51.090;-115.340;2023-11-21T05:24:36;87743.80;;;1.68
74539;BMP180;66042;51.090;-115.340;2023-11-21T05:27:11;87742.80;;;1.60
74539;BMP180;66042;51.090;-115.340;2023-11-21T05:29:48;87733.60;;;1.60
74539;BMP180;66042;51.090;-115.340;2023-11-21T05:32:48;87726.20;;;1.60
74539;BMP180;66042;51.090;-115.340;2023-11-21T05:41:19;87721.00;;;1.60
74539;BMP180;66042;51.090;-115.340;2023-11-21T05:43:53;87717.80;;;1.60
74539;BMP180;66042;51.090;-115.340;2023-11-21T05:46:27;87715.00;;;1.60
74539;BMP180;66042;51.090;-115.340;2023-11-21T05:48:57;87722.20;;;1.60
74539;BMP180;66042;51.090;-115.340;2023-11-21T05:51:24;87729.40;;;1.60
74539;BMP180;66042;51.090;-115.340;2023-11-21T05:53:52;87730.20;;;1.50
74539;BMP180;66042;51.090;-115.340;2023-11-21T05:56:37;87735.40;;;1.40
74539;BMP180;66042;51.090;-115.340;2023-11-21T05:59:13;87734.60;;;1.22
74539;BMP180;66042;51.090;-115.340;2023-11-21T06:01:41;87734.20;;;1.10
74539;BMP180;66042;51.090;-115.340;2023-11-21T06:04:33;87734.60;;;1.10
74539;BMP180;66042;51.090;-115.340;2023-11-21T06:07:31;87737.00;;;1.20
74539;BMP180;66042;51.090;-115.340;2023-11-21T06:10:21;87737.20;;;1.30
74539;BMP180;66042;51.090;-115.340;2023-11-21T06:13:10;87738.20;;;1.20
74539;BMP180;66042;51.090;-115.340;2023-11-21T06:16:04;87738.80;;;1.20
74539;BMP180;66042;51.090;-115.340;2023-11-21T06:21:42;87731.80;;;1.20
74539;BMP180;66042;51.090;-115.340;2023-11-21T06:33:32;87726.20;;;1.20
74539;BMP180;66042;51.090;-115.340;2023-11-21T06:36:20;87727.80;;;1.10
74539;BMP180;66042;51.090;-115.340;2023-11-21T06:41:56;87733.60;;;0.78
74539;BMP180;66042;51.090;-115.340;2023-11-21T06:44:32;87735.00;;;0.70
74539;BMP180;66042;51.090;-115.340;2023-11-21T06:47:14;87727.20;;;0.60
74539;BMP180;66042;51.090;-115.340;2023-11-21T06:49:53;87723.40;;;0.52
74539;BMP180;66042;51.090;-115.340;2023-11-21T06:52:20;87721.60;;;0.52
74539;BMP180;66042;51.090;-115.340;2023-11-21T06:54:48;87716.80;;;0.58
74539;BMP180;66042;51.090;-115.340;2023-11-21T06:57:26;87710.80;;;0.60
74539;BMP180;66042;51.090;-115.340;2023-11-21T07:00:08;87702.40;;;0.70
74539;BMP180;66042;51.090;-115.340;2023-11-21T07:02:36;87708.00;;;0.70
74539;BMP180;66042;51.090;-115.340;2023-11-21T07:05:04;87710.80;;;0.70
74539;BMP180;66042;51.090;-115.340;2023-11-21T07:07:45;87708.60;;;0.70
74539;BMP180;66042;51.090;-115.340;2023-11-21T07:10:32;87714.20;;;0.60
74539;BMP180;66042;51.090;-115.340;2023-11-21T07:13:15;87723.00;;;0.60
74539;BMP180;66042;51.090;-115.340;2023-11-21T07:15:44;87723.60;;;0.60
74539;BMP180;66042;51.090;-115.340;2023-11-21T07:18:23;87725.60;;;0.70
74539;BMP180;66042;51.090;-115.340;2023-11-21T07:20:54;87715.40;;;0.70
74539;BMP180;66042;51.090;-115.340;2023-11-21T07:23:24;87705.20;;;0.80
74539;BMP180;66042;51.090;-115.340;2023-11-21T07:25:57;87696.60;;;0.80
74539;BMP180;66042;51.090;-115.340;2023-11-21T07:28:38;87694.40;;;0.90
74539;BMP180;66042;51.090;-115.340;2023-11-21T07:31:31;87698.40;;;0.90
74539;BMP180;66042;51.090;-115.340;2023-11-21T07:34:27;87692.60;;;0.90
74539;BMP180;66042;51.090;-115.340;2023-11-21T07:37:11;87688.80;;;0.96
74539;BMP180;66042;51.090;-115.340;2023-11-21T07:40:17;87679.80;;;0.90
74539;BMP180;66042;51.090;-115.340;2023-11-21T07:42:47;87678.00;;;0.80
74539;BMP180;66042;51.090;-115.340;2023-11-21T07:45:18;87675.60;;;0.70
74539;BMP180;66042;51.090;-115.340;2023-11-21T07:47:51;87682.60;;;0.64
74539;BMP180;66042;51.090;-115.340;2023-11-21T07:50:22;87680.60;;;0.60
74539;BMP180;66042;51.090;-115.340;2023-11-21T07:52:49;87670.20;;;0.60
74539;BMP180;66042;51.090;-115.340;2023-11-21T07:55:37;87668.60;;;0.60
74539;BMP180;66042;51.090;-115.340;2023-11-21T07:58:06;87666.40;;;0.60
74539;BMP180;66042;51.090;-115.340;2023-11-21T08:00:42;87664.80;;;0.60
74539;BMP180;66042;51.090;-115.340;2023-11-21T08:03:20;87666.00;;;0.60
74539;BMP180;66042;51.090;-115.340;2023-11-21T08:05:47;87674.00;;;0.60
74539;BMP180;66042;51.090;-115.340;2023-11-21T08:08:14;87673.00;;;0.60
74539;BMP180;66042;51.090;-115.340;2023-11-21T08:10:47;87669.80;;;0.70
74539;BMP180;66042;51.090;-115.340;2023-11-21T08:13:27;87664.00;;;0.70
74539;BMP180;66042;51.090;-115.340;2023-11-21T08:15:58;87662.00;;;0.70
74539;BMP180;66042;51.090;-115.340;2023-11-21T08:18:29;87660.20;;;0.60
74539;BMP180;66042;51.090;-115.340;2023-11-21T08:20:56;87654.80;;;0.60
74539;BMP180;66042;51.090;-115.340;2023-11-21T08:23:23;87654.80;;;0.60
74539;BMP180;66042;51.090;-115.340;2023-11-21T08:25:54;87661.00;;;0.60
74539;BMP180;66042;51.090;-115.340;2023-11-21T08:28:22;87660.60;;;0.70
74539;BMP180;66042;51.090;-115.340;2023-11-21T08:30:52;87657.80;;;0.70
74539;BMP180;66042;51.090;-115.340;2023-11-21T08:33:20;87649.40;;;0.70
74539;BMP180;66042;51.090;-115.340;2023-11-21T08:35:48;87644.00;;;0.60
74539;BMP180;66042;51.090;-115.340;2023-11-21T08:38:16;87638.00;;;0.52
74539;BMP180;66042;51.090;-115.340;2023-11-21T08:40:42;87639.60;;;0.58
74539;BMP180;66042;51.090;-115.340;2023-11-21T08:43:10;87627.80;;;0.60
74539;BMP180;66042;51.090;-115.340;2023-11-21T08:45:38;87627.80;;;0.50
74539;BMP180;66042;51.090;-115.340;2023-11-21T08:48:05;87618.20;;;0.50
74539;BMP180;66042;51.090;-115.340;2023-11-21T08:50:33;87623.40;;;0.48
74539;BMP180;66042;51.090;-115.340;2023-11-21T08:53:01;87627.40;;;0.40
74539;BMP180;66042;51.090;-115.340;2023-11-21T08:55:28;87622.60;;;0.30
74539;BMP180;66042;51.090;-115.340;2023-11-21T08:57:54;87620.80;;;0.30
74539;BMP180;66042;51.090;-115.340;2023-11-21T09:00:22;87622.00;;;0.30
74539;BMP180;66042;51.090;-115.340;2023-11-21T09:02:50;87614.40;;;0.20
74539;BMP180;66042;51.090;-115.340;2023-11-21T09:05:17;87602.80;;;0.20
74539;BMP180;66042;51.090;-115.340;2023-11-21T09:07:45;87596.20;;;0.20
74539;BMP180;66042;51.090;-115.340;2023-11-21T09:10:13;87594.80;;;0.30
74539;BMP180;66042;51.090;-115.340;2023-11-21T09:12:40;87595.60;;;0.26
74539;BMP180;66042;51.090;-115.340;2023-11-21T09:15:09;87592.60;;;0.20
74539;BMP180;66042;51.090;-115.340;2023-11-21T09:17:37;87592.00;;;0.10
74539;BMP180;66042;51.090;-115.340;2023-11-21T09:20:05;87588.00;;;0.10
74539;BMP180;66042;51.090;-115.340;2023-11-21T09:22:36;87588.40;;;0.10
74539;BMP180;66042;51.090;-115.340;2023-11-21T09:25:03;87583.40;;;0.10
74539;BMP180;66042;51.090;-115.340;2023-11-21T09:27:55;87581.80;;;0.20
74539;BMP180;66042;51.090;-115.340;2023-11-21T09:30:26;87576.00;;;0.20
74539;BMP180;66042;51.090;-115.340;2023-11-21T09:33:00;87578.60;;;0.20
74539;BMP180;66042;51.090;-115.340;2023-11-21T09:35:31;87574.60;;;0.30
74539;BMP180;66042;51.090;-115.340;2023-11-21T09:38:14;87565.40;;;0.30
74539;BMP180;66042;51.090;-115.340;2023-11-21T09:40:42;87556.60;;;0.30
74539;BMP180;66042;51.090;-115.340;2023-11-21T09:43:35;87558.40;;;0.30
74539;BMP180;66042;51.090;-115.340;2023-11-21T09:46:06;87569.00;;;0.30
74539;BMP180;66042;51.090;-115.340;2023-11-21T09:48:41;87564.40;;;0.30
74539;BMP180;66042;51.090;-115.340;2023-11-21T09:51:10;87550.60;;;0.30
74539;BMP180;66042;51.090;-115.340;2023-11-21T09:53:51;87551.80;;;0.20
74539;BMP180;66042;51.090;-115.340;2023-11-21T09:56:36;87545.00;;;0.20
74539;BMP180;66042;51.090;-115.340;2023-11-21T09:59:07;87551.20;;;0.20
74539;BMP180;66042;51.090;-115.340;2023-11-21T10:02:17;87550.20;;;0.20
74539;BMP180;66042;51.090;-115.340;2023-11-21T10:05:00;87546.40;;;0.00
74539;BMP180;66042;51.090;-115.340;2023-11-21T10:07:31;87546.60;;;0.00
74539;BMP180;66042;51.090;-115.340;2023-11-21T10:10:05;87545.40;;;0.08
74539;BMP180;66042;51.090;-115.340;2023-11-21T10:12:33;87545.80;;;0.10
74539;BMP180;66042;51.090;-115.340;2023-11-21T10:15:03;87536.00;;;0.10
74539;BMP180;66042;51.090;-115.340;2023-11-21T10:17:38;87530.40;;;-0.08
74539;BMP180;66042;51.090;-115.340;2023-11-21T10:20:16;87520.20;;;-0.20
74539;BMP180;66042;51.090;-115.340;2023-11-21T10:22:43;87514.60;;;-0.30
74539;BMP180;66042;51.090;-115.340;2023-11-21T10:25:11;87523.80;;;-0.30
74539;BMP180;66042;51.090;-115.340;2023-11-21T10:27:41;87511.00;;;-0.30
74539;BMP180;66042;51.090;-115.340;2023-11-21T10:30:11;87505.80;;;-0.30
74539;BMP180;66042;51.090;-115.340;2023-11-21T10:32:39;87504.20;;;-0.30
74539;BMP180;66042;51.090;-115.340;2023-11-21T10:35:08;87496.00;;;-0.42
74539;BMP180;66042;51.090;-115.340;2023-11-21T10:37:40;87495.40;;;-0.60
74539;BMP180;66042;51.090;-115.340;2023-11-21T10:40:11;87490.00;;;-0.70
74539;BMP180;66042;51.090;-115.340;2023-11-21T10:42:41;87491.00;;;-0.72
74539;BMP180;66042;51.090;-115.340;2023-11-21T10:45:09;87490.00;;;-0.78
74539;BMP180;66042;51.090;-115.340;2023-11-21T10:47:44;87490.20;;;-0.70
74539;BMP180;66042;51.090;-115.340;2023-11-21T10:50:11;87491.00;;;-0.70
74539;BMP180;66042;51.090;-115.340;2023-11-21T10:52:40;87489.60;;;-0.80
74539;BMP180;66042;51.090;-115.340;2023-11-21T10:55:21;87482.80;;;-0.80
74539;BMP180;66042;51.090;-115.340;2023-11-21T10:57:54;87484.40;;;-0.80
74539;BMP180;66042;51.090;-115.340;2023-11-21T11:00:26;87477.20;;;-0.80
74539;BMP180;66042;51.090;-115.340;2023-11-21T11:02:54;87467.60;;;-0.80
74539;BMP180;66042;51.090;-115.340;2023-11-21T11:05:24;87472.00;;;-0.80
74539;BMP180;66042;51.090;-115.340;2023-11-21T11:08:12;87454.20;;;-0.80
74539;BMP180;66042;51.090;-115.340;2023-11-21T11:10:39;87445.80;;;-0.74
74539;BMP180;66042;51.090;-115.340;2023-11-21T11:13:07;87436.40;;;-0.70
74539;BMP180;66042;51.090;-115.340;2023-11-21T11:15:34;87431.60;;;-0.80
74539;BMP180;66042;51.090;-115.340;2023-11-21T11:18:02;87432.20;;;-0.92
74539;BMP180;66042;51.090;-115.340;2023-11-21T11:20:36;87422.60;;;-1.00
74539;BMP180;66042;51.090;-115.340;2023-11-21T11:23:38;87419.20;;;-1.00
74539;BMP180;66042;51.090;-115.340;2023-11-21T11:26:47;87417.20;;;-1.10
74539;BMP180;66042;51.090;-115.340;2023-11-21T11:29:44;87411.80;;;-1.20
74539;BMP180;66042;51.090;-115.340;2023-11-21T11:35:13;87391.80;;;-1.50
74539;BMP180;66042;51.090;-115.340;2023-11-21T11:37:44;87394.00;;;-1.60
74539;BMP180;66042;51.090;-115.340;2023-11-21T11:40:14;87391.60;;;-1.70
74539;BMP180;66042;51.090;-115.340;2023-11-21T11:43:01;87373.60;;;-1.70
74539;BMP180;66042;51.090;-115.340;2023-11-21T11:45:35;87372.00;;;-1.60
74539;BMP180;66042;51.090;-115.340;2023-11-21T11:48:06;87359.60;;;-1.56
74539;BMP180;66042;51.090;-115.340;2023-11-21T11:50:33;87360.00;;;-1.50
74539;BMP180;66042;51.090;-115.340;2023-11-21T11:53:15;87361.80;;;-1.50
74539;BMP180;66042;51.090;-115.340;2023-11-21T11:55:43;87358.40;;;-1.56
74539;BMP180;66042;51.090;-115.340;2023-11-21T11:58:11;87356.40;;;-1.50
74539;BMP180;66042;51.090;-115.340;2023-11-21T12:00:39;87345.60;;;-1.52
74539;BMP180;66042;51.090;-115.340;2023-11-21T12:03:09;87348.00;;;-1.60
74539;BMP180;66042;51.090;-115.340;2023-11-21T12:05:36;87348.00;;;-1.60
74539;BMP180;66042;51.090;-115.340;2023-11-21T12:08:08;87335.80;;;-1.60
74539;BMP180;66042;51.090;-115.340;2023-11-21T12:10:38;87323.40;;;-1.70
74539;BMP180;66042;51.090;-115.340;2023-11-21T12:13:10;87318.80;;;-1.70
74539;BMP180;66042;51.090;-115.340;2023-11-21T12:15:40;87321.80;;;-1.70
74539;BMP180;66042;51.090;-115.340;2023-11-21T12:18:08;87302.40;;;-1.72
74539;BMP180;66042;51.090;-115.340;2023-11-21T12:20:35;87303.60;;;-1.70
74539;BMP180;66042;51.090;-115.340;2023-11-21T12:23:09;87293.80;;;-1.80
74539;BMP180;66042;51.090;-115.340;2023-11-21T12:25:37;87284.40;;;-1.80
74539;BMP180;66042;51.090;-115.340;2023-11-21T12:28:06;87274.80;;;-1.80
74539;BMP180;66042;51.090;-115.340;2023-11-21T12:30:35;87267.00;;;-1.70
74539;BMP180;66042;51.090;-115.340;2023-11-21T12:33:04;87273.00;;;-1.70
74539;BMP180;66042;51.090;-115.340;2023-11-21T12:35:35;87267.00;;;-1.70
74539;BMP180;66042;51.090;-115.340;2023-11-21T12:38:03;87265.20;;;-1.60
74539;BMP180;66042;51.090;-115.340;2023-11-21T12:40:31;87247.40;;;-1.60
74539;BMP180;66042;51.090;-115.340;2023-11-21T12:43:00;87256.20;;;-1.60
74539;BMP180;66042;51.090;-115.340;2023-11-21T12:45:29;87229.80;;;-1.62
74539;BMP180;66042;51.090;-115.340;2023-11-21T12:48:02;87227.00;;;-1.60
74539;BMP180;66042;51.090;-115.340;2023-11-21T12:50:35;87224.20;;;-1.64
74539;BMP180;66042;51.090;-115.340;2023-11-21T12:53:04;87227.00;;;-1.60
74539;BMP180;66042;51.090;-115.340;2023-11-21T12:55:33;87220.20;;;-1.60
74539;BMP180;66042;51.090;-115.340;2023-11-21T12:58:06;87220.80;;;-1.60
74539;BMP180;66042;51.090;-115.340;2023-11-21T13:01:02;87225.20;;;-1.60
74539;BMP180;66042;51.090;-115.340;2023-11-21T13:03:32;87203.60;;;-1.60
74539;BMP180;66042;51.090;-115.340;2023-11-21T13:05:59;87222.00;;;-1.60
74539;BMP180;66042;51.090;-115.340;2023-11-21T13:08:27;87215.60;;;-1.60
74539;BMP180;66042;51.090;-115.340;2023-11-21T13:10:57;87213.40;;;-1.50
74539;BMP180;66042;51.090;-115.340;2023-11-21T13:13:27;87216.20;;;-1.50
74539;BMP180;66042;51.090;-115.340;2023-11-21T13:15:56;87204.40;;;-1.52
74539;BMP180;66042;51.090;-115.340;2023-11-21T13:18:25;87213.40;;;-1.52
74539;BMP180;66042;51.090;-115.340;2023-11-21T13:21:00;87195.40;;;-1.60
74539;BMP180;66042;51.090;-115.340;2023-11-21T13:23:29;87197.20;;;-1.52
74539;BMP180;66042;51.090;-115.340;2023-11-21T13:26:02;87188.40;;;-1.50
74539;BMP180;66042;51.090;-115.340;2023-11-21T13:28:35;87184.00;;;-1.50
74539;BMP180;66042;51.090;-115.340;2023-11-21T13:31:05;87176.40;;;-1.60
74539;BMP180;66042;51.090;-115.340;2023-11-21T13:33:52;87181.00;;;-1.50
74539;BMP180;66042;51.090;-115.340;2023-11-21T13:36:26;87176.80;;;-1.50
74539;BMP180;66042;51.090;-115.340;2023-11-21T13:38:56;87169.80;;;-1.50
74539;BMP180;66042;51.090;-115.340;2023-11-21T13:41:25;87144.00;;;-1.50
74539;BMP180;66042;51.090;-115.340;2023-11-21T13:43:58;87146.20;;;-1.50
74539;BMP180;66042;51.090;-115.340;2023-11-21T13:46:53;87144.60;;;-1.50
74539;BMP180;66042;51.090;-115.340;2023-11-21T13:49:20;87137.60;;;-1.50
74539;BMP180;66042;51.090;-115.340;2023-11-21T13:51:47;87143.60;;;-1.50
74539;BMP180;66042;51.090;-115.340;2023-11-21T13:54:18;87136.00;;;-1.60
74539;BMP180;66042;51.090;-115.340;2023-11-21T13:56:47;87120.20;;;-1.60
74539;BMP180;66042;51.090;-115.340;2023-11-21T13:59:16;87117.60;;;-1.60
74539;BMP180;66042;51.090;-115.340;2023-11-21T14:01:50;87113.80;;;-1.70
74539;BMP180;66042;51.090;-115.340;2023-11-21T14:04:22;87088.20;;;-1.70
74539;BMP180;66042;51.090;-115.340;2023-11-21T14:07:16;87091.60;;;-1.70
74539;BMP180;66042;51.090;-115.340;2023-11-21T14:10:02;87081.40;;;-1.70
74539;BMP180;66042;51.090;-115.340;2023-11-21T14:12:30;87089.80;;;-1.70
74539;BMP180;66042;51.090;-115.340;2023-11-21T14:15:00;87067.20;;;-1.70
74539;BMP180;66042;51.090;-115.340;2023-11-21T14:17:31;87060.60;;;-1.70
74539;BMP180;66042;51.090;-115.340;2023-11-21T14:19:59;87053.60;;;-1.70
74539;BMP180;66042;51.090;-115.340;2023-11-21T14:22:26;87064.00;;;-1.70
74539;BMP180;66042;51.090;-115.340;2023-11-21T14:24:53;87062.20;;;-1.60
74539;BMP180;66042;51.090;-115.340;2023-11-21T14:27:22;87039.20;;;-1.56
74539;BMP180;66042;51.090;-115.340;2023-11-21T14:29:48;87035.80;;;-1.50
74539;BMP180;66042;51.090;-115.340;2023-11-21T14:32:15;87050.00;;;-1.50
74539;BMP180;66042;51.090;-115.340;2023-11-21T14:34:43;87026.00;;;-1.40
74539;BMP180;66042;51.090;-115.340;2023-11-21T14:37:14;87026.00;;;-1.40
74539;BMP180;66042;51.090;-115.340;2023-11-21T14:39:41;87037.80;;;-1.40
74539;BMP180;66042;51.090;-115.340;2023-11-21T14:42:11;87008.60;;;-1.40
74539;BMP180;66042;51.090;-115.340;2023-11-21T14:44:41;87014.80;;;-1.40
74539;BMP180;66042;51.090;-115.340;2023-11-21T14:47:09;87011.40;;;-1.30
74539;BMP180;66042;51.090;-115.340;2023-11-21T14:49:43;87021.00;;;-1.30
74539;BMP180;66042;51.090;-115.340;2023-11-21T14:52:20;87022.00;;;-1.20